createdAt,value
2019-02-27T00:00:28.824Z,33.43
2019-02-27T00:04:34.856Z,23.40
2019-02-27T00:08:37.711Z,25.27
2019-02-27T00:12:41.006Z,27.60
2019-02-27T00:16:44.776Z,25.67
2019-02-27T00:20:48.578Z,25.60
2019-02-27T00:24:51.874Z,23.63
2019-02-27T00:28:56.163Z,26.87
2019-02-27T00:33:00.566Z,28.23
2019-02-27T00:37:04.313Z,24.27
2019-02-27T00:41:11.891Z,29.10
2019-02-27T00:45:13.306Z,29.43
2019-02-27T00:49:16.959Z,32.23
2019-02-27T00:53:22.005Z,26.73
2019-02-27T00:57:26.319Z,31.17
2019-02-27T01:01:30.039Z,27.50
2019-02-27T01:05:33.334Z,27.50
2019-02-27T01:09:37.204Z,22.30
2019-02-27T01:13:42.087Z,25.60
2019-02-27T01:17:45.825Z,28.73
2019-02-27T01:21:49.799Z,27.77
2019-02-27T01:25:56.141Z,33.07
2019-02-27T01:29:58.562Z,31.67
2019-02-27T01:34:01.846Z,33.53
2019-02-27T01:38:05.857Z,28.63
2019-02-27T01:42:09.268Z,27.47
2019-02-27T01:46:12.543Z,27.17
2019-02-27T01:50:36.610Z,30.10
2019-02-27T01:54:39.910Z,36.40
2019-02-27T01:58:44.372Z,29.03
2019-02-27T02:02:47.820Z,30.03
2019-02-27T02:06:51.562Z,30.73
2019-02-27T02:10:55.307Z,28.27
2019-02-27T02:15:19.167Z,29.30
2019-02-27T02:19:54.019Z,26.80
2019-02-27T02:24:35.854Z,28.90
2019-02-27T02:29:17.897Z,30.00
2019-02-27T02:33:48.567Z,37.03
2019-02-27T02:38:12.412Z,29.20
2019-02-27T02:43:03.485Z,34.03
2019-02-27T02:47:32.831Z,34.47
2019-02-27T02:52:04.358Z,33.23
2019-02-27T02:56:44.143Z,36.20
2019-02-27T03:00:50.066Z,40.17
2019-02-27T03:05:11.323Z,29.17
2019-02-27T03:09:31.378Z,29.63
2019-02-27T03:13:42.783Z,28.40
2019-02-27T03:18:19.618Z,29.33
2019-02-27T03:22:27.202Z,27.20
2019-02-27T03:26:51.848Z,29.67
2019-02-27T03:31:18.499Z,33.43
2019-02-27T03:35:29.210Z,30.40
2019-02-27T03:39:48.114Z,32.47
2019-02-27T03:44:05.262Z,30.30
2019-02-27T03:48:37.107Z,26.70
2019-02-27T03:52:55.082Z,27.80
2019-02-27T03:57:07.787Z,29.93
2019-02-27T04:01:42.626Z,33.47
2019-02-27T04:05:57.408Z,27.43
2019-02-27T04:10:01.148Z,26.63
2019-02-27T04:14:26.627Z,31.60
2019-02-27T04:18:29.274Z,31.73
2019-02-27T04:22:36.612Z,33.37
2019-02-27T04:26:41.551Z,36.40
2019-02-27T04:30:42.639Z,31.63
2019-02-27T04:34:46.159Z,32.17
2019-02-27T04:38:49.880Z,34.60
2019-02-27T04:42:53.178Z,38.37
2019-02-27T04:46:56.910Z,35.63
2019-02-27T04:51:00.649Z,34.40
2019-02-27T04:55:04.246Z,34.97
2019-02-27T04:59:07.974Z,35.50
2019-02-27T05:03:11.702Z,31.20
2019-02-27T05:07:15.098Z,33.50
2019-02-27T05:11:18.368Z,31.00
2019-02-27T05:15:21.674Z,37.00
2019-02-27T05:19:24.974Z,31.60
2019-02-27T05:23:28.278Z,24.73
2019-02-27T05:27:32.355Z,29.13
2019-02-27T05:31:35.674Z,32.87
2019-02-27T05:35:39.395Z,37.63
2019-02-27T05:39:43.151Z,31.77
2019-02-27T05:43:48.529Z,31.70
2019-02-27T05:47:52.182Z,29.67
2019-02-27T05:51:55.908Z,30.33
2019-02-27T05:55:59.242Z,31.70
2019-02-27T06:00:03.433Z,36.00
2019-02-27T06:04:07.886Z,37.00
2019-02-27T06:08:11.194Z,29.60
2019-02-27T06:12:14.918Z,28.53
2019-02-27T06:16:18.962Z,29.93
2019-02-27T06:20:23.358Z,30.13
2019-02-27T06:24:27.082Z,29.40
2019-02-27T06:28:30.382Z,32.57
2019-02-27T06:32:35.746Z,31.27
2019-02-27T06:36:42.852Z,30.60
2019-02-27T06:40:44.398Z,36.83
2019-02-27T06:44:47.704Z,29.90
2019-02-27T06:48:50.976Z,30.73
2019-02-27T06:52:54.708Z,34.63
2019-02-27T06:56:58.771Z,36.40
2019-02-27T07:01:02.495Z,38.73
2019-02-27T07:05:05.997Z,40.40
2019-02-27T07:09:11.647Z,39.97
2019-02-27T07:13:14.498Z,45.43
2019-02-27T07:17:18.223Z,37.33
2019-02-27T07:21:21.969Z,42.33
2019-02-27T07:25:25.258Z,41.50
2019-02-27T07:29:28.546Z,35.70
2019-02-27T07:33:32.287Z,34.33
2019-02-27T07:37:36.270Z,39.73
2019-02-27T07:41:39.563Z,34.70
2019-02-27T07:45:45.541Z,33.27
2019-02-27T07:49:48.766Z,33.67
2019-02-27T07:53:53.805Z,38.40
2019-02-27T07:57:58.779Z,40.77
2019-02-27T08:02:03.186Z,46.63
2019-02-27T08:06:06.550Z,43.17
2019-02-27T08:10:11.247Z,42.07
2019-02-27T08:14:14.551Z,38.77
2019-02-27T08:18:23.177Z,35.53
2019-02-27T08:22:24.075Z,45.13
2019-02-27T08:26:27.475Z,37.47
2019-02-27T08:30:31.270Z,39.20
2019-02-27T08:34:35.571Z,39.73
2019-02-27T08:38:39.301Z,41.37
2019-02-27T08:42:42.790Z,41.63
2019-02-27T08:46:46.095Z,44.43
2019-02-27T08:50:49.614Z,39.33
2019-02-27T08:54:53.595Z,41.20
2019-02-27T08:58:56.909Z,35.87
2019-02-27T09:03:02.966Z,33.53
2019-02-27T09:07:05.514Z,41.33
2019-02-27T09:11:08.807Z,37.63
2019-02-27T09:15:13.028Z,38.30
2019-02-27T09:19:16.329Z,32.90
2019-02-27T09:23:19.610Z,36.40
2019-02-27T09:27:23.354Z,35.70
2019-02-27T09:31:26.999Z,33.43
2019-02-27T09:35:34.596Z,34.97
2019-02-27T09:39:36.299Z,30.57
2019-02-27T09:43:40.171Z,27.33
2019-02-27T09:47:43.470Z,31.27
2019-02-27T09:51:46.778Z,28.73
2019-02-27T09:55:53.451Z,29.20
2019-02-27T09:59:55.570Z,27.30
2019-02-27T10:03:59.374Z,28.57
2019-02-27T10:08:03.264Z,30.40
2019-02-27T10:12:07.983Z,28.80
2019-02-27T10:16:11.278Z,28.37
2019-02-27T10:20:14.906Z,26.00
2019-02-27T10:24:18.217Z,29.93
2019-02-27T10:28:22.014Z,26.77
2019-02-27T10:32:25.318Z,28.03
2019-02-27T10:36:29.139Z,25.03
2019-02-27T10:40:32.866Z,25.07
2019-02-27T10:44:36.170Z,26.47
2019-02-27T10:48:39.458Z,25.03
2019-02-27T10:52:43.802Z,24.97
2019-02-27T10:56:47.794Z,24.00
2019-02-27T11:00:51.129Z,26.63
2019-02-27T11:04:54.426Z,28.13
2019-02-27T11:08:57.800Z,26.07
2019-02-27T11:13:05.471Z,26.70
2019-02-27T11:17:06.562Z,23.67
2019-02-27T11:21:10.683Z,24.60
2019-02-27T11:25:16.187Z,24.43
2019-02-27T11:29:23.525Z,23.43
2019-02-27T11:33:26.091Z,23.60
2019-02-27T11:37:29.976Z,20.90
2019-02-27T11:41:34.579Z,21.80
2019-02-27T11:45:38.122Z,20.43
2019-02-27T11:49:41.434Z,18.83
2019-02-27T11:53:45.092Z,21.23
2019-02-27T11:57:48.572Z,21.97
2019-02-27T12:01:55.390Z,18.80
2019-02-27T12:05:57.330Z,21.37
2019-02-27T12:10:01.393Z,19.83
2019-02-27T12:14:06.545Z,22.37
2019-02-27T12:18:10.503Z,21.67
2019-02-27T12:22:13.798Z,21.00
2019-02-27T12:26:17.357Z,20.27
2019-02-27T12:30:20.665Z,19.57
2019-02-27T12:34:25.217Z,29.80
2019-02-27T12:38:28.530Z,19.43
2019-02-27T12:42:37.361Z,21.33
2019-02-27T12:46:39.018Z,17.50
2019-02-27T12:50:42.752Z,18.03
2019-02-27T12:54:48.358Z,17.83
2019-02-27T12:58:51.510Z,17.57
2019-02-27T13:02:55.472Z,17.60
2019-02-27T13:06:59.066Z,18.10
2019-02-27T13:11:05.314Z,18.63
2019-02-27T13:15:10.015Z,21.10
2019-02-27T13:19:13.754Z,19.33
2019-02-27T13:23:17.489Z,21.57
2019-02-27T13:27:20.786Z,21.07
2019-02-27T13:31:26.831Z,20.13
2019-02-27T13:35:30.652Z,21.63
2019-02-27T13:39:34.387Z,20.40
2019-02-27T13:43:37.690Z,20.00
2019-02-27T13:47:41.424Z,21.53
2019-02-27T13:51:44.798Z,21.63
2019-02-27T13:55:48.938Z,18.70
2019-02-27T13:59:52.686Z,20.63
2019-02-27T14:03:56.008Z,22.20
2019-02-27T14:07:59.878Z,20.03
2019-02-27T14:12:03.730Z,22.67
2019-02-27T14:16:07.002Z,22.13
2019-02-27T14:20:11.690Z,22.80
2019-02-27T14:24:14.978Z,22.73
2019-02-27T14:28:20.990Z,20.37
2019-02-27T14:32:23.750Z,21.40
2019-02-27T14:36:27.486Z,21.83
2019-02-27T14:40:30.774Z,22.43
2019-02-27T14:44:34.077Z,22.03
2019-02-27T14:48:38.010Z,22.93
2019-02-27T14:52:41.551Z,21.80
2019-02-27T14:56:45.144Z,22.57
2019-02-27T15:00:48.438Z,21.40
2019-02-27T15:04:52.551Z,22.20
2019-02-27T15:08:58.134Z,20.13
2019-02-27T15:13:01.306Z,20.43
2019-02-27T15:17:04.618Z,21.50
2019-02-27T15:21:07.907Z,22.03
2019-02-27T15:25:12.018Z,22.60
2019-02-27T15:29:15.311Z,22.37
2019-02-27T15:33:18.614Z,24.07
2019-02-27T15:37:22.522Z,23.53
2019-02-27T15:41:26.410Z,24.17
2019-02-27T15:45:30.286Z,23.43
2019-02-27T15:49:33.599Z,24.10
2019-02-27T15:53:36.910Z,22.13
2019-02-27T15:57:40.206Z,22.10
2019-02-27T16:01:43.839Z,23.27
2019-02-27T16:05:47.142Z,24.40
2019-02-27T16:09:51.149Z,22.23
2019-02-27T16:13:54.822Z,25.03
2019-02-27T16:17:58.118Z,22.17
2019-02-27T16:22:02.200Z,22.33
2019-02-27T16:26:06.002Z,23.27
2019-02-27T16:30:12.902Z,27.83
2019-02-27T16:34:16.643Z,27.83
2019-02-27T16:38:20.226Z,26.37
2019-02-27T16:42:23.550Z,24.90
2019-02-27T16:46:27.278Z,27.83
2019-02-27T16:50:30.667Z,27.73
2019-02-27T16:54:33.966Z,26.63
2019-02-27T16:58:37.258Z,26.60
2019-02-27T17:02:40.575Z,26.03
2019-02-27T17:06:43.902Z,32.33
2019-02-27T17:10:51.705Z,31.67
2019-02-27T17:14:55.444Z,29.10
2019-02-27T17:18:59.182Z,29.47
2019-02-27T17:23:06.820Z,29.53
2019-02-27T17:27:12.515Z,33.20
2019-02-27T17:31:13.575Z,38.97
2019-02-27T17:35:16.890Z,31.77
2019-02-27T17:39:22.247Z,31.07
2019-02-27T17:43:29.498Z,30.27
2019-02-27T17:47:30.678Z,30.47
2019-02-27T17:51:33.982Z,30.30
2019-02-27T17:55:38.210Z,29.10
2019-02-27T17:59:43.040Z,28.83
2019-02-27T18:03:46.970Z,31.47
2019-02-27T18:07:50.867Z,33.10
2019-02-27T18:11:54.488Z,31.23
2019-02-27T18:15:57.854Z,37.23
2019-02-27T18:20:01.186Z,27.70
2019-02-27T18:24:05.054Z,27.93
2019-02-27T18:28:09.134Z,28.00
2019-02-27T18:32:12.490Z,30.10
2019-02-27T18:36:16.316Z,32.30
2019-02-27T18:40:20.084Z,36.77
2019-02-27T18:44:23.380Z,29.50
2019-02-27T18:48:26.670Z,36.70
2019-02-27T18:52:30.030Z,31.70
2019-02-27T18:56:34.121Z,37.33
2019-02-27T19:00:38.858Z,34.67
2019-02-27T19:04:42.419Z,40.13
2019-02-27T19:08:45.751Z,36.47
2019-02-27T19:12:49.374Z,35.23
2019-02-27T19:16:54.948Z,38.27
2019-02-27T19:20:59.125Z,34.00
2019-02-27T19:25:03.250Z,36.70
2019-02-27T19:29:07.350Z,31.03
2019-02-27T19:33:11.637Z,33.60
2019-02-27T19:37:15.199Z,35.63
2019-02-27T19:41:18.587Z,34.50
2019-02-27T19:45:21.974Z,36.60
2019-02-27T19:49:25.334Z,35.87
2019-02-27T19:53:28.636Z,39.27
2019-02-27T19:57:31.942Z,39.10
2019-02-27T20:01:35.669Z,37.70
2019-02-27T20:05:39.344Z,36.33
2019-02-27T20:09:42.898Z,40.10
2019-02-27T20:13:46.186Z,38.27
2019-02-27T20:17:49.762Z,33.80
2019-02-27T20:21:53.127Z,38.07
2019-02-27T20:25:56.431Z,36.37
2019-02-27T20:29:59.818Z,32.57
2019-02-27T20:34:03.326Z,38.00
2019-02-27T20:38:07.124Z,38.07
2019-02-27T20:42:10.442Z,39.07
2019-02-27T20:46:15.505Z,36.87
2019-02-27T20:50:34.133Z,42.53
2019-02-27T20:54:28.343Z,45.67
2019-02-27T20:58:31.685Z,45.10
2019-02-27T21:02:35.014Z,42.83
2019-02-27T21:06:38.313Z,47.40
2019-02-27T21:10:41.654Z,46.53
2019-02-27T21:14:44.947Z,42.60
2019-02-27T21:18:48.735Z,52.00
2019-02-27T21:22:52.030Z,52.30
2019-02-27T21:26:57.232Z,48.47
2019-02-27T21:31:00.802Z,56.63
2019-02-27T21:35:04.278Z,50.70
2019-02-27T21:39:08.644Z,49.97
2019-02-27T21:43:12.387Z,57.57
2019-02-27T21:47:18.384Z,51.37
2019-02-27T21:51:21.138Z,51.17
2019-02-27T21:55:24.565Z,46.27
2019-02-27T21:59:27.836Z,46.33
2019-02-27T22:03:31.154Z,48.53
2019-02-27T22:07:35.248Z,52.00
2019-02-27T22:11:38.561Z,50.67
2019-02-27T22:15:42.292Z,55.97
2019-02-27T22:19:46.095Z,58.33
2019-02-27T22:23:49.410Z,55.17
2019-02-27T22:27:53.634Z,55.77
2019-02-27T22:31:57.239Z,54.40
2019-02-27T22:36:00.550Z,72.53
2019-02-27T22:40:07.338Z,49.23
2019-02-27T22:44:08.943Z,56.33
2019-02-27T22:48:12.558Z,49.23
2019-02-27T22:52:19.193Z,51.57
2019-02-27T22:56:21.303Z,46.83
2019-02-27T23:00:56.671Z,50.57
2019-02-27T23:05:03.832Z,56.53
2019-02-27T23:09:07.970Z,58.53
2019-02-27T23:13:12.659Z,50.63
2019-02-27T23:17:17.426Z,53.43
2019-02-27T23:21:20.798Z,54.93
2019-02-27T23:25:24.607Z,48.37
2019-02-27T23:29:27.971Z,50.00
2019-02-27T23:33:35.834Z,62.23
2019-02-27T23:37:36.286Z,56.63
2019-02-27T23:41:40.243Z,64.23
2019-02-27T23:45:44.503Z,54.50
2019-02-27T23:49:48.566Z,54.70
2019-02-27T23:53:52.282Z,52.87
2019-02-27T23:57:57.775Z,54.83
